Time;durP1;ratioP1;P1;durP2;ratioP2;P2;SDS_P1;SDS_P2;PMS_P1;PMS_P2;Temp;Humidity;BMP_temperature;BMP_pressure;BME280_temperature;BME280_humidity;BME280_pressure;Samples;Min_cycle;Max_cycle;Signal;HPM_P1;HPM_P2
2022/03/15 00:00:31;;;;;;;42.3;51.7;;;;;;;1.3;48.7;100220;;;;
2022/03/15 00:10:29;;;;;;;42.3;51.7;;;;;;;1.2;48.9;100220;;;;
2022/03/15 00:20:29;;;;;;;24.7;29.3;;;;;;;1.4;48.8;100220;;;;
2022/03/15 00:31:29;;;;;;;24.7;29.3;;;;;;;1.9;48.5;100220;;;;
2022/03/15 00:41:29;;;;;;;24.7;29.3;;;;;;;1.7;48.2;100220;;;;
2022/03/15 00:51:29;;;;;;;17.2;20.8;;;;;;;1.6;48.3;100220;;;;
2022/03/15 01:02:29;;;;;;;17.2;20.8;;;;;;;1.2;49.7;100210;;;;
2022/03/15 01:13:29;;;;;;;15.5;20.7;;;;;;;0.9;50.7;100200;;;;
2022/03/15 01:23:30;;;;;;;15.5;20.7;;;;;;;0.8;51.2;100200;;;;
2022/03/15 01:33:29;;;;;;;15.5;20.7;;;;;;;0.5;52.5;100190;;;;
2022/03/15 01:43:29;;;;;;;20;26.4;;;;;;;0.5;51.9;100180;;;;
2022/03/15 01:54:29;;;;;;;20;26.4;;;;;;;0.5;52.5;100180;;;;
2022/03/15 02:04:29;;;;;;;20;26.4;;;;;;;0.4;53.2;100190;;;;
2022/03/15 02:14:29;;;;;;;18;23.9;;;;;;;0.4;52.5;100190;;;;
2022/03/15 02:25:29;;;;;;;18;23.9;;;;;;;0.2;52.5;100200;;;;
2022/03/15 02:35:29;;;;;;;18;23.9;;;;;;;0;53.4;100200;;;;
2022/03/15 02:46:29;;;;;;;17.2;22.4;;;;;;;0.1;54;100210;;;;
2022/03/15 02:56:33;;;;;;;17.2;22.4;;;;;;;-0.2;54.8;100210;;;;
2022/03/15 03:07:29;;;;;;;17.2;22.4;;;;;;;-0.6;55.5;100220;;;;
2022/03/15 03:17:30;;;;;;;20.4;28.5;;;;;;;-0.8;56.7;100230;;;;
2022/03/15 03:28:36;;;;;;;20.4;28.5;;;;;;;-0.7;57.5;100220;;;;
2022/03/15 03:39:29;;;;;;;20.4;28.5;;;;;;;-0.6;57.1;100220;;;;
2022/03/15 03:49:31;;;;;;;21.6;26.9;;;;;;;-0.8;57.8;100230;;;;
2022/03/15 04:00:29;;;;;;;21.6;26.9;;;;;;;-1.2;58.1;100220;;;;
2022/03/15 04:10:32;;;;;;;21.6;26.9;;;;;;;-1;59.2;100220;;;;
2022/03/15 04:21:29;;;;;;;33.4;44.4;;;;;;;-1;59.2;100210;;;;
2022/03/15 04:31:29;;;;;;;33.4;44.4;;;;;;;-0.7;59.4;100210;;;;
2022/03/15 04:42:29;;;;;;;13.7;20.4;;;;;;;-0.8;60.1;100200;;;;
2022/03/15 04:53:29;;;;;;;13.7;20.4;;;;;;;-1;61.1;100220;;;;
2022/03/15 05:04:29;;;;;;;13.7;20.4;;;;;;;-1.5;62.9;100230;;;;
2022/03/15 05:14:29;;;;;;;36.1;50.7;;;;;;;-1.7;64.5;100220;;;;
2022/03/15 05:24:29;;;;;;;36.1;50.7;;;;;;;-1.6;65.1;100210;;;;
2022/03/15 05:34:29;;;;;;;36.1;50.7;;;;;;;-1.5;65.6;100210;;;;
2022/03/15 05:44:29;;;;;;;28.8;39.1;;;;;;;-1.2;66.4;100210;;;;
2022/03/15 05:54:29;;;;;;;28.8;39.1;;;;;;;-0.6;65.1;100210;;;;
2022/03/15 06:04:29;;;;;;;28.8;39.1;;;;;;;-0.1;64.1;100220;;;;
2022/03/15 06:14:29;;;;;;;21.9;31.4;;;;;;;0.4;63.4;100220;;;;
2022/03/15 06:25:30;;;;;;;21.9;31.4;;;;;;;0.9;63;100220;;;;
2022/03/15 06:36:29;;;;;;;21.9;31.4;;;;;;;1.9;59.5;100220;;;;
2022/03/15 06:47:29;;;;;;;41.5;55.5;;;;;;;2.7;59.7;100210;;;;
2022/03/15 06:57:29;;;;;;;41.5;55.5;;;;;;;3.3;57.8;100210;;;;
2022/03/15 07:07:29;;;;;;;41.5;55.5;;;;;;;4.2;53.2;100220;;;;
2022/03/15 07:17:30;;;;;;;26.8;36.5;;;;;;;4.9;54.8;100230;;;;
2022/03/15 07:28:30;;;;;;;26.8;36.5;;;;;;;5.6;54.2;100220;;;;
2022/03/15 07:39:29;;;;;;;26.8;36.5;;;;;;;6.2;51.4;100220;;;;
2022/03/15 07:50:29;;;;;;;32.5;42.6;;;;;;;7;49;100220;;;;
2022/03/15 08:00:31;;;;;;;32.5;42.6;;;;;;;7.7;46.7;100210;;;;
2022/03/15 08:11:30;;;;;;;19.6;25.4;;;;;;;8.4;45.2;100200;;;;
2022/03/15 08:21:31;;;;;;;19.6;25.4;;;;;;;9;42.6;100190;;;;
2022/03/15 08:32:30;;;;;;;19.6;25.4;;;;;;;9.6;42.3;100190;;;;
2022/03/15 08:42:29;;;;;;;13.7;18.5;;;;;;;10;41.4;100180;;;;
2022/03/15 08:53:31;;;;;;;13.7;18.5;;;;;;;10.7;40.4;100180;;;;
2022/03/15 09:03:29;;;;;;;13.7;18.5;;;;;;;11;40.2;100160;;;;
2022/03/15 09:14:29;;;;;;;23.7;30;;;;;;;11.5;38.8;100150;;;;
2022/03/15 09:24:33;;;;;;;23.7;30;;;;;;;11.9;37.3;100140;;;;
2022/03/15 09:35:29;;;;;;;23.7;30;;;;;;;12.2;36.5;100120;;;;
2022/03/15 09:45:30;;;;;;;16.1;21.4;;;;;;;12.6;36.1;100120;;;;
2022/03/15 09:56:29;;;;;;;16.1;21.4;;;;;;;12.9;35.5;100100;;;;
2022/03/15 10:06:29;;;;;;;16.1;21.4;;;;;;;13.1;35.1;100090;;;;
2022/03/15 10:17:29;;;;;;;12.8;16.3;;;;;;;13.8;35.4;100070;;;;
2022/03/15 10:27:30;;;;;;;12.8;16.3;;;;;;;14;35.5;100050;;;;
2022/03/15 10:38:30;;;;;;;12.8;16.3;;;;;;;14.4;34.4;100030;;;;
2022/03/15 10:48:30;;;;;;;12.2;15.9;;;;;;;14.8;33.3;100010;;;;
2022/03/15 10:58:30;;;;;;;12.2;15.9;;;;;;;14.9;33.9;100010;;;;
2022/03/15 11:09:29;;;;;;;12.2;15.9;;;;;;;15.3;33.5;99990;;;;
2022/03/15 11:19:29;;;;;;;10.8;15.5;;;;;;;15.4;32.6;99970;;;;
2022/03/15 11:29:31;;;;;;;10.8;15.5;;;;;;;15.4;33.3;99950;;;;
2022/03/15 11:39:30;;;;;;;10.8;15.5;;;;;;;15.8;32.6;99930;;;;
2022/03/15 11:50:30;;;;;;;9.7;16.4;;;;;;;15.9;32.3;99910;;;;
2022/03/15 12:01:33;;;;;;;9.7;16.4;;;;;;;16.1;31.6;99890;;;;
2022/03/15 12:12:30;;;;;;;10.5;13.5;;;;;;;16.3;31.7;99870;;;;
2022/03/15 12:23:29;;;;;;;10.5;13.5;;;;;;;16.4;31.7;99860;;;;
2022/03/15 12:33:30;;;;;;;10.5;13.5;;;;;;;16.2;31.9;99840;;;;
2022/03/15 12:43:30;;;;;;;10.8;14.2;;;;;;;16.3;32.7;99830;;;;
2022/03/15 12:54:30;;;;;;;10.8;14.2;;;;;;;16.4;31.4;99810;;;;
2022/03/15 13:05:29;;;;;;;10.8;14.2;;;;;;;16.4;31.2;99790;;;;
2022/03/15 13:15:30;;;;;;;9.8;15;;;;;;;16.5;32.4;99770;;;;
2022/03/15 13:26:29;;;;;;;9.8;15;;;;;;;16.7;31.3;99770;;;;
2022/03/15 13:36:31;;;;;;;9.8;15;;;;;;;16.7;31.4;99760;;;;
2022/03/15 13:47:30;;;;;;;10;12.8;;;;;;;16.6;31.4;99760;;;;
2022/03/15 13:57:31;;;;;;;10;12.8;;;;;;;16.6;31.7;99750;;;;
2022/03/15 14:08:30;;;;;;;10;12.8;;;;;;;16.3;31.4;99730;;;;
2022/03/15 14:19:30;;;;;;;10.5;15.8;;;;;;;16.6;30.8;99730;;;;
2022/03/15 14:29:30;;;;;;;10.5;15.8;;;;;;;17.1;30.5;99720;;;;
2022/03/15 14:39:30;;;;;;;10.5;15.8;;;;;;;16.5;30.7;99710;;;;
2022/03/15 14:49:30;;;;;;;9.8;14.4;;;;;;;16.4;31.2;99690;;;;
2022/03/15 14:59:30;;;;;;;9.8;14.4;;;;;;;16.3;31.6;99680;;;;
2022/03/15 15:10:30;;;;;;;9;13.7;;;;;;;16.1;31.9;99670;;;;
2022/03/15 15:20:30;;;;;;;9;13.7;;;;;;;15.6;32.4;99670;;;;
2022/03/15 15:31:30;;;;;;;9;13.7;;;;;;;14.8;34.6;99650;;;;
2022/03/15 15:41:37;;;;;;;12.5;21.2;;;;;;;14.5;35.2;99640;;;;
2022/03/15 15:51:30;;;;;;;12.5;21.2;;;;;;;14.2;35.3;99640;;;;
2022/03/15 16:01:32;;;;;;;12.5;21.2;;;;;;;13.8;36.6;99630;;;;
2022/03/15 16:22:30;;;;;;;13.1;17.2;;;;;;;12.9;38;99620;;;;
2022/03/15 16:32:30;;;;;;;13.1;17.2;;;;;;;12.5;38.2;99610;;;;
2022/03/15 16:42:30;;;;;;;15.9;24.1;;;;;;;11.9;39.2;99600;;;;
2022/03/15 16:53:30;;;;;;;15.9;24.1;;;;;;;11.5;40.8;99600;;;;
2022/03/15 17:14:31;;;;;;;33.3;39.1;;;;;;;10.9;42.3;99590;;;;
2022/03/15 17:25:30;;;;;;;33.3;39.1;;;;;;;10.6;43.1;99580;;;;
2022/03/15 17:36:30;;;;;;;33.3;39.1;;;;;;;10.3;43.9;99550;;;;
2022/03/15 17:47:30;;;;;;;28.7;37;;;;;;;10.1;44.2;99540;;;;
2022/03/15 17:58:31;;;;;;;28.7;37;;;;;;;9.9;44.6;99520;;;;
2022/03/15 18:09:30;;;;;;;28.7;37;;;;;;;9.7;45;99520;;;;
2022/03/15 18:20:40;;;;;;;33.8;43;;;;;;;9.6;45.4;99510;;;;
2022/03/15 18:30:30;;;;;;;33.8;43;;;;;;;9.5;46;99500;;;;
2022/03/15 18:41:31;;;;;;;41.9;48.6;;;;;;;9.3;46.1;99480;;;;
2022/03/15 18:52:30;;;;;;;41.9;48.6;;;;;;;9.2;46.4;99470;;;;
2022/03/15 19:02:30;;;;;;;41.9;48.6;;;;;;;9;46.5;99460;;;;
2022/03/15 19:13:30;;;;;;;40.3;50.7;;;;;;;8.9;47.2;99440;;;;
2022/03/15 19:23:32;;;;;;;40.3;50.7;;;;;;;8.9;47.3;99430;;;;
2022/03/15 19:34:30;;;;;;;40.3;50.7;;;;;;;8.6;47.7;99420;;;;
2022/03/15 19:44:30;;;;;;;34.8;44.5;;;;;;;8.2;48;99410;;;;
2022/03/15 19:55:32;;;;;;;34.8;44.5;;;;;;;8;50.3;99350;;;;
2022/03/15 20:05:30;;;;;;;34.8;44.5;;;;;;;8.2;50.1;99330;;;;
2022/03/15 20:15:31;;;;;;;40;48.4;;;;;;;8;50.3;99310;;;;
2022/03/15 20:26:30;;;;;;;40;48.4;;;;;;;7.8;49.9;99300;;;;
2022/03/15 20:37:30;;;;;;;40;48.4;;;;;;;7.7;50.7;99300;;;;
2022/03/15 20:47:30;;;;;;;37.1;46.7;;;;;;;7.4;51.7;99270;;;;
2022/03/15 20:57:30;;;;;;;37.1;46.7;;;;;;;7.2;52;99280;;;;
2022/03/15 21:08:35;;;;;;;37.1;46.7;;;;;;;7.1;52.1;99290;;;;
2022/03/15 21:19:30;;;;;;;45.7;58.6;;;;;;;6.9;52.2;99300;;;;
2022/03/15 21:29:30;;;;;;;45.7;58.6;;;;;;;6.7;53.9;99310;;;;
2022/03/15 21:40:30;;;;;;;52.5;59.8;;;;;;;6.6;51.6;99310;;;;
2022/03/15 21:50:30;;;;;;;52.5;59.8;;;;;;;6.6;51.2;99290;;;;
2022/03/15 22:01:30;;;;;;;52.5;59.8;;;;;;;6.6;51.8;99280;;;;
2022/03/15 22:12:33;;;;;;;71.7;88.3;;;;;;;6.4;51.9;99250;;;;
2022/03/15 22:23:30;;;;;;;71.7;88.3;;;;;;;6.3;51.8;99220;;;;
2022/03/15 23:25:30;;;;;;;63.2;84.2;;;;;;;5.9;56.3;99140;;;;
2022/03/15 23:35:30;;;;;;;63.2;84.2;;;;;;;5.9;56.5;99140;;;;
2022/03/15 23:45:30;;;;;;;50.2;56.8;;;;;;;5.9;56.6;99120;;;;
2022/03/15 23:56:30;;;;;;;50.2;56.8;;;;;;;5.9;58.1;99120;;;;
